Time;durP1;ratioP1;P1;durP2;ratioP2;P2;SDS_P1;SDS_P2;PMS_P1;PMS_P2;Temp;Humidity;BMP_temperature;BMP_pressure;BME280_temperature;BME280_humidity;BME280_pressure;Samples;Min_cycle;Max_cycle;Signal;HPM_P1;HPM_P2
2021/05/18 00:01:18;;;;;;;11.50;10.40;;;17.70;86.60;;;;;;5094202;28;20047;-65
2021/05/18 00:03:44;;;;;;;11.73;10.52;;;17.70;86.60;;;;;;5093650;28;20028;-65
2021/05/18 00:06:10;;;;;;;12.15;10.60;;;17.60;86.60;;;;;;5093998;28;20525;-65
2021/05/18 00:11:42;;;;;;;13.27;11.82;;;17.60;87.00;;;;;;5093091;28;20032;-65
2021/05/18 00:14:06;;;;;;;11.20;10.13;;;17.60;86.80;;;;;;5094043;28;20081;-65
2021/05/18 00:16:31;;;;;;;11.93;10.73;;;17.60;86.90;;;;;;5083250;28;20059;-64
2021/05/18 00:18:57;;;;;;;12.57;11.27;;;17.60;87.10;;;;;;5073658;28;20048;-64
2021/05/18 00:21:23;;;;;;;12.55;11.07;;;17.60;87.10;;;;;;5083835;28;20027;-64
2021/05/18 00:23:49;;;;;;;13.25;11.85;;;17.60;87.30;;;;;;5093617;28;20031;-64
2021/05/18 00:26:14;;;;;;;13.90;11.52;;;17.60;87.20;;;;;;5093420;28;20050;-64
2021/05/18 00:28:40;;;;;;;11.77;10.52;;;17.60;87.20;;;;;;5092946;28;20043;-64
2021/05/18 00:31:07;;;;;;;11.48;10.38;;;17.60;87.10;;;;;;5093272;28;20024;-64
2021/05/18 00:33:33;;;;;;;13.80;11.02;;;17.60;87.10;;;;;;5093752;28;20032;-64
2021/05/18 00:35:59;;;;;;;11.18;10.00;;;17.70;86.90;;;;;;5093720;28;20389;-64
2021/05/18 00:38:26;;;;;;;11.10;10.00;;;17.60;86.80;;;;;;5093413;28;20028;-64
2021/05/18 00:40:52;;;;;;;9.43;8.52;;;17.60;86.70;;;;;;5093458;28;20060;-64
2021/05/18 00:43:18;;;;;;;10.90;9.82;;;17.60;86.60;;;;;;5093581;28;20027;-65
2021/05/18 00:45:47;;;;;;;9.90;9.00;;;17.60;86.60;;;;;;5093208;28;20035;-65
2021/05/18 00:48:14;;;;;;;10.13;9.10;;;17.50;86.60;;;;;;5093406;28;20056;-65
2021/05/18 00:50:43;;;;;;;10.45;9.45;;;17.50;86.50;;;;;;5093016;28;20027;-65
2021/05/18 00:53:09;;;;;;;9.75;8.85;;;17.50;86.60;;;;;;5093359;28;20460;-65
2021/05/18 00:55:40;;;;;;;10.00;9.00;;;17.50;86.50;;;;;;5093444;28;20028;-65
2021/05/18 00:58:26;;;;;;;9.85;8.85;;;17.50;86.40;;;;;;5093102;28;20056;-65
2021/05/18 01:00:55;;;;;;;10.77;8.82;;;17.50;86.50;;;;;;5081810;28;20029;-65
2021/05/18 01:03:22;;;;;;;9.88;8.93;;;17.40;86.50;;;;;;5085194;28;20027;-65
2021/05/18 01:08:32;;;;;;;9.85;8.85;;;17.40;86.70;;;;;;5077523;28;20039;-65
2021/05/18 01:10:59;;;;;;;9.80;8.80;;;17.40;86.80;;;;;;5091404;28;20067;-65
2021/05/18 01:13:25;;;;;;;10.27;9.38;;;17.40;86.80;;;;;;5091204;28;20403;-65
2021/05/18 01:15:50;;;;;;;10.60;9.60;;;17.40;87.00;;;;;;5091369;28;20016;-65
2021/05/18 01:18:16;;;;;;;10.02;9.02;;;17.40;86.80;;;;;;5087247;28;20410;-65
2021/05/18 01:20:52;;;;;;;9.95;8.95;;;17.40;86.90;;;;;;5077992;28;20384;-65
2021/05/18 01:23:18;;;;;;;10.82;9.25;;;17.40;86.80;;;;;;5093030;28;20108;-65
2021/05/18 01:25:43;;;;;;;9.63;8.73;;;17.50;86.70;;;;;;5092860;28;20060;-65
2021/05/18 01:28:09;;;;;;;10.30;9.23;;;17.40;86.60;;;;;;5092101;28;20024;-65
2021/05/18 01:30:34;;;;;;;9.95;8.68;;;17.40;86.60;;;;;;5092744;28;20031;-65
2021/05/18 01:33:00;;;;;;;9.10;8.20;;;17.40;86.50;;;;;;5091587;28;20106;-65
2021/05/18 01:35:28;;;;;;;9.32;8.43;;;17.40;86.60;;;;;;5092432;28;20103;-65
2021/05/18 01:37:54;;;;;;;10.15;8.82;;;17.40;86.70;;;;;;5079269;28;20024;-65
2021/05/18 01:42:52;;;;;;;9.13;8.18;;;17.40;87.20;;;;;;5097340;28;20031;-65
2021/05/18 01:45:21;;;;;;;8.93;8.03;;;17.40;87.00;;;;;;5096957;28;20069;-65
2021/05/18 01:47:56;;;;;;;9.52;8.57;;;17.50;87.10;;;;;;5097072;28;20475;-65
2021/05/18 01:50:25;;;;;;;9.38;8.38;;;17.50;87.00;;;;;;5095789;28;20490;-65
2021/05/18 01:52:52;;;;;;;9.55;8.63;;;17.40;87.00;;;;;;5096141;28;20040;-65
2021/05/18 01:55:28;;;;;;;9.77;8.77;;;17.40;86.90;;;;;;5096326;28;20027;-65
2021/05/18 01:57:54;;;;;;;10.20;8.93;;;17.40;86.70;;;;;;5096361;28;20020;-65
2021/05/18 02:00:24;;;;;;;10.43;9.32;;;17.30;86.80;;;;;;5078539;28;20032;-65
2021/05/18 02:02:51;;;;;;;11.90;10.65;;;17.20;87.00;;;;;;5096628;28;20034;-65
2021/05/18 02:05:19;;;;;;;13.48;11.27;;;17.20;87.00;;;;;;5096346;28;20102;-65
2021/05/18 02:07:48;;;;;;;14.07;11.52;;;17.10;87.50;;;;;;5095502;28;20123;-65
2021/05/18 02:10:16;;;;;;;13.20;11.55;;;17.10;87.80;;;;;;5096530;28;20094;-65
2021/05/18 02:12:42;;;;;;;12.27;10.80;;;17.10;88.00;;;;;;5095992;28;20032;-65
2021/05/18 02:17:52;;;;;;;15.18;12.38;;;17.20;88.20;;;;;;5082844;28;20028;-65
2021/05/18 02:25:37;;;;;;;14.82;13.25;;;17.20;88.30;;;;;;5096253;28;20038;-65
2021/05/18 02:28:03;;;;;;;14.88;13.23;;;17.20;88.30;;;;;;5096271;28;20421;-65
2021/05/18 02:30:29;;;;;;;27.05;19.85;;;17.20;88.30;;;;;;5096101;28;20016;-65
2021/05/18 02:32:56;;;;;;;24.73;20.63;;;17.30;88.30;;;;;;5095763;28;20039;-65
2021/05/18 02:35:22;;;;;;;29.38;24.88;;;17.30;88.50;;;;;;5095608;28;20028;-64
2021/05/18 02:37:49;;;;;;;27.95;23.30;;;17.40;88.70;;;;;;5095527;28;20039;-64
2021/05/18 02:40:20;;;;;;;24.38;21.70;;;17.40;88.50;;;;;;5095616;28;20035;-64
2021/05/18 02:42:47;;;;;;;27.88;23.73;;;17.30;88.40;;;;;;5095708;28;20038;-65
2021/05/18 02:45:37;;;;;;;27.30;21.63;;;17.40;88.40;;;;;;5095160;28;20028;-66
2021/05/18 02:50:48;;;;;;;23.52;20.05;;;17.50;88.60;;;;;;5095100;28;20031;-65
2021/05/18 02:53:13;;;;;;;23.77;19.83;;;17.50;88.50;;;;;;5095119;28;20024;-65
2021/05/18 02:55:58;;;;;;;23.25;18.55;;;17.50;88.40;;;;;;5095573;28;20069;-65
2021/05/18 02:58:25;;;;;;;20.38;17.63;;;17.50;88.50;;;;;;5095641;28;20475;-65
2021/05/18 03:00:51;;;;;;;19.65;16.85;;;17.50;88.40;;;;;;5085020;28;20036;-65
2021/05/18 03:03:17;;;;;;;13.00;11.60;;;17.50;88.50;;;;;;5093751;28;20046;-65
2021/05/18 03:05:43;;;;;;;11.63;10.48;;;17.50;88.30;;;;;;5095250;28;20111;-65
2021/05/18 03:08:09;;;;;;;11.93;10.38;;;17.50;88.20;;;;;;5094754;28;20031;-65
2021/05/18 03:10:35;;;;;;;10.98;9.23;;;17.50;87.60;;;;;;5095108;28;20028;-65
2021/05/18 03:13:02;;;;;;;10.68;9.57;;;17.50;87.60;;;;;;5094399;28;20031;-64
2021/05/18 03:15:29;;;;;;;9.77;8.82;;;17.40;87.30;;;;;;5094537;28;20073;-64
2021/05/18 03:17:56;;;;;;;10.98;9.88;;;17.40;87.50;;;;;;5091308;28;20024;-64
2021/05/18 03:20:22;;;;;;;11.15;9.85;;;17.40;87.50;;;;;;5088593;28;20032;-64
2021/05/18 03:22:47;;;;;;;11.13;9.93;;;17.30;87.80;;;;;;5095103;28;20032;-64
2021/05/18 03:25:14;;;;;;;13.15;11.13;;;17.30;88.00;;;;;;5094680;28;20046;-64
2021/05/18 03:27:39;;;;;;;12.38;9.73;;;17.40;88.20;;;;;;5095003;28;20032;-64
2021/05/18 03:30:23;;;;;;;12.43;10.75;;;17.40;88.30;;;;;;5094745;28;20070;-64
2021/05/18 03:35:34;;;;;;;11.05;9.77;;;17.50;88.70;;;;;;5095247;28;20082;-64
2021/05/18 03:38:04;;;;;;;10.98;9.88;;;17.50;88.50;;;;;;5094229;28;20102;-64
2021/05/18 03:40:30;;;;;;;11.23;10.07;;;17.50;88.70;;;;;;5094888;28;20020;-64
2021/05/18 03:43:08;;;;;;;10.25;9.23;;;17.60;88.50;;;;;;5094623;28;20066;-64
2021/05/18 03:45:36;;;;;;;10.00;8.77;;;17.60;88.40;;;;;;5094930;28;20430;-64
2021/05/18 03:53:44;;;;;;;10.48;9.27;;;17.60;88.00;;;;;;5094636;28;20032;-64
2021/05/18 04:04:25;;;;;;;12.50;9.80;;;17.50;87.60;;;;;;5092859;28;20085;-64
2021/05/18 04:18:14;;;;;;;12.05;9.05;;;17.50;88.10;;;;;;5035902;28;20484;-64
2021/05/18 04:20:53;;;;;;;10.60;8.75;;;17.50;88.20;;;;;;5046438;28;20507;-64
2021/05/18 04:59:18;;;;;;;21.38;15.25;;;18.00;87.80;;;;;;5093763;28;20445;-65
2021/05/18 05:01:44;;;;;;;21.13;13.38;;;17.90;87.70;;;;;;5072298;28;20048;-65
2021/05/18 05:06:59;;;;;;;16.60;12.45;;;18.00;87.80;;;;;;5083013;28;20118;-65
2021/05/18 05:09:33;;;;;;;15.65;12.77;;;18.00;87.80;;;;;;5090791;28;20020;-65
2021/05/18 05:15:00;;;;;;;;;;;18.10;88.00;;;;;;4991327;28;20030;-65
2021/05/18 05:17:26;;;;;;;14.13;10.48;;;18.10;87.70;;;;;;5073322;28;20191;-64
2021/05/18 05:19:51;;;;;;;16.13;11.98;;;18.20;87.80;;;;;;5089624;28;21627;-55
2021/05/18 05:22:17;;;;;;;14.65;11.52;;;18.20;87.50;;;;;;5083422;28;20538;-58
2021/05/18 05:24:44;;;;;;;14.13;10.75;;;18.20;87.50;;;;;;5083067;28;20036;-57
2021/05/18 05:27:10;;;;;;;15.50;10.57;;;18.20;87.30;;;;;;5076825;28;20491;-57
2021/05/18 05:29:36;;;;;;;14.95;11.25;;;18.20;87.30;;;;;;5085264;28;20065;-58
2021/05/18 05:32:02;;;;;;;15.10;11.32;;;18.20;87.60;;;;;;5082233;28;20035;-56
2021/05/18 05:34:28;;;;;;;14.23;10.57;;;18.10;87.50;;;;;;5083342;28;20562;-56
2021/05/18 05:36:53;;;;;;;14.05;9.93;;;18.10;87.30;;;;;;5086274;28;20024;-57
2021/05/18 05:39:23;;;;;;;11.77;9.77;;;18.10;87.60;;;;;;5084115;28;20028;-57
2021/05/18 05:41:54;;;;;;;12.80;9.02;;;18.00;87.70;;;;;;5079176;28;20024;-54
2021/05/18 05:44:24;;;;;;;12.27;9.50;;;18.00;88.00;;;;;;5085096;28;20024;-54
2021/05/18 05:46:51;;;;;;;11.50;8.63;;;18.00;88.10;;;;;;5079845;28;20024;-56
2021/05/18 05:49:16;;;;;;;12.75;9.55;;;18.00;88.20;;;;;;5079835;28;20040;-57
2021/05/18 05:51:42;;;;;;;12.82;10.50;;;18.00;88.30;;;;;;5082492;28;20077;-57
2021/05/18 05:54:08;;;;;;;15.10;12.18;;;18.10;88.40;;;;;;5075673;28;20023;-57
2021/05/18 05:56:34;;;;;;;15.80;11.40;;;18.10;88.30;;;;;;5076897;28;20067;-56
2021/05/18 05:59:01;;;;;;;14.32;11.30;;;18.10;88.40;;;;;;5074944;28;20586;-59
2021/05/18 06:01:31;;;;;;;15.68;11.90;;;18.10;88.30;;;;;;5075923;28;20040;-57
2021/05/18 06:03:57;;;;;;;12.38;10.95;;;18.10;88.40;;;;;;5078273;28;20027;-59
2021/05/18 06:06:23;;;;;;;13.43;9.25;;;18.10;88.30;;;;;;5079966;28;20359;-54
2021/05/18 06:08:49;;;;;;;15.48;11.52;;;18.20;88.30;;;;;;5079432;28;20036;-57
2021/05/18 06:11:27;;;;;;;13.40;10.18;;;18.20;88.30;;;;;;5075146;28;20032;-57
2021/05/18 06:48:26;;;;;;;25.95;15.98;;;19.00;86.60;;;;;;5061769;28;20073;-63
2021/05/18 06:50:52;;;;;;;19.90;14.63;;;19.10;86.60;;;;;;5080407;28;20036;-53
2021/05/18 06:53:18;;;;;;;21.58;15.15;;;19.10;87.20;;;;;;5075518;28;20595;-62
2021/05/18 06:55:44;;;;;;;29.08;20.05;;;19.30;86.70;;;;;;5080893;28;20428;-63
2021/05/18 06:58:15;;;;;;;29.48;19.42;;;19.40;86.10;;;;;;5073934;28;20090;-62
2021/05/18 07:00:42;;;;;;;29.08;17.75;;;19.50;86.40;;;;;;5074819;28;20161;-57
2021/05/18 07:03:12;;;;;;;25.80;15.95;;;19.60;85.60;;;;;;5080027;28;20051;-54
2021/05/18 07:06:07;;;;;;;27.52;16.77;;;19.70;85.20;;;;;;5082167;28;20111;-59
2021/05/18 07:10:53;;;;;;;27.30;18.85;;;19.80;84.30;;;;;;5075188;28;20028;-61
2021/05/18 07:13:19;;;;;;;32.33;21.10;;;19.80;83.80;;;;;;5074818;28;21881;-60
2021/05/18 07:15:45;;;;;;;34.65;22.42;;;19.80;83.40;;;;;;5080459;28;20071;-59
2021/05/18 07:18:11;;;;;;;24.55;17.45;;;19.80;82.80;;;;;;5074191;28;20059;-59
2021/05/18 07:20:37;;;;;;;23.77;17.27;;;19.70;83.00;;;;;;5076772;28;20141;-57
2021/05/18 07:23:09;;;;;;;16.75;11.65;;;19.70;83.80;;;;;;5072044;28;20031;-57
2021/05/18 07:25:36;;;;;;;13.38;10.95;;;19.70;83.70;;;;;;5074871;28;20506;-52
2021/05/18 07:28:06;;;;;;;22.10;14.63;;;19.80;83.30;;;;;;5074259;28;20106;-56
2021/05/18 07:30:36;;;;;;;19.95;12.88;;;19.80;83.30;;;;;;5069646;28;20077;-56
2021/05/18 07:33:02;;;;;;;21.27;14.77;;;19.90;83.50;;;;;;5075810;28;20028;-54
2021/05/18 07:35:28;;;;;;;20.08;14.00;;;19.90;83.10;;;;;;5072490;28;20461;-55
2021/05/18 07:37:54;;;;;;;25.85;15.23;;;20.00;82.30;;;;;;5073877;28;20024;-56
2021/05/18 07:40:20;;;;;;;20.15;13.05;;;20.00;82.00;;;;;;5075041;28;20384;-54
2021/05/18 07:42:51;;;;;;;23.95;14.63;;;20.00;82.10;;;;;;5068728;28;20109;-55
2021/05/18 07:45:23;;;;;;;14.00;11.30;;;20.00;82.30;;;;;;5070535;28;20488;-57
2021/05/18 07:47:49;;;;;;;17.75;11.18;;;20.10;82.80;;;;;;5075188;28;20151;-56
2021/05/18 07:50:19;;;;;;;19.13;12.98;;;20.10;82.80;;;;;;5073421;28;20127;-57
2021/05/18 08:06:46;;;;;;;25.13;17.98;;;20.60;81.40;;;;;;5005255;28;20204;-57
2021/05/18 08:09:11;;;;;;;22.02;15.07;;;20.70;81.30;;;;;;5041961;28;20044;-57
2021/05/18 08:11:37;;;;;;;17.85;12.70;;;20.80;80.40;;;;;;5069012;28;20119;-57
2021/05/18 08:14:03;;;;;;;17.38;12.82;;;20.80;80.30;;;;;;5069139;28;20515;-58
2021/05/18 08:16:56;;;;;;;10.55;8.85;;;20.90;79.50;;;;;;5065913;28;20023;-58
2021/05/18 08:22:44;;;;;;;8.50;6.72;;;20.90;79.30;;;;;;5067040;28;20036;-57
2021/05/18 10:36:04;;;;;;;7.03;5.88;;;20.00;84.00;;;;;;5080775;28;20050;-64
2021/05/18 10:38:38;;;;;;;6.38;5.72;;;20.00;83.80;;;;;;5081175;28;20441;-64
2021/05/18 10:41:06;;;;;;;6.18;5.57;;;20.00;83.70;;;;;;5080447;28;20036;-64
2021/05/18 10:43:33;;;;;;;6.28;5.63;;;20.00;83.70;;;;;;5082347;28;20378;-64
2021/05/18 10:46:05;;;;;;;5.88;5.32;;;20.00;83.80;;;;;;5079097;28;20397;-64
2021/05/18 10:48:37;;;;;;;6.75;5.05;;;20.00;83.60;;;;;;5074654;28;20800;-65
2021/05/18 10:51:27;;;;;;;5.75;5.20;;;20.10;83.70;;;;;;5077575;28;20510;-64
2021/05/18 10:54:35;;;;;;;8.52;5.88;;;20.20;82.90;;;;;;5058738;28;20082;-64
2021/05/18 10:57:08;;;;;;;6.78;6.07;;;20.20;82.90;;;;;;5072492;28;20036;-64
2021/05/18 10:59:45;;;;;;;6.82;6.13;;;20.10;83.10;;;;;;5062096;28;20027;-64
2021/05/18 11:02:15;;;;;;;7.28;6.57;;;20.00;83.00;;;;;;5072783;28;20035;-65
2021/05/18 11:04:45;;;;;;;9.03;7.13;;;19.90;83.20;;;;;;5072376;28;20491;-64
2021/05/18 11:07:15;;;;;;;7.07;6.38;;;19.80;83.00;;;;;;5072998;28;20051;-64
2021/05/18 11:09:42;;;;;;;8.02;6.45;;;19.70;83.20;;;;;;5074737;28;20081;-65
2021/05/18 11:12:10;;;;;;;8.07;6.30;;;19.70;84.00;;;;;;5072883;28;20345;-65
2021/05/18 11:14:51;;;;;;;6.50;5.40;;;19.60;84.20;;;;;;5073347;28;20036;-64
2021/05/18 11:17:22;;;;;;;8.02;5.47;;;19.70;84.10;;;;;;5077785;28;20020;-64
2021/05/18 11:20:08;;;;;;;7.15;6.18;;;19.70;83.90;;;;;;5075025;28;20126;-64
2021/05/18 11:26:07;;;;;;;7.15;6.45;;;19.60;83.30;;;;;;5072592;28;20081;-64
2021/05/18 11:28:37;;;;;;;7.57;6.40;;;19.50;83.80;;;;;;5077959;28;20479;-65
2021/05/18 11:31:04;;;;;;;7.20;6.50;;;19.40;84.00;;;;;;5077871;28;20027;-66
2021/05/18 11:33:42;;;;;;;6.75;6.03;;;19.40;84.40;;;;;;5065081;28;20519;-65
2021/05/18 11:36:13;;;;;;;6.35;5.70;;;19.40;84.80;;;;;;5071872;28;20491;-65
2021/05/18 11:38:41;;;;;;;7.50;5.75;;;19.40;85.10;;;;;;5073164;28;20027;-66
2021/05/18 11:41:07;;;;;;;6.90;5.68;;;19.50;85.00;;;;;;5077312;28;20032;-63
2021/05/18 11:43:37;;;;;;;6.28;5.57;;;19.60;84.40;;;;;;5074111;28;20382;-62
2021/05/18 11:46:12;;;;;;;7.07;6.37;;;19.60;84.20;;;;;;5073342;28;20047;-62
2021/05/18 11:48:40;;;;;;;6.85;5.90;;;19.50;83.90;;;;;;5068667;28;20245;-64
2021/05/18 11:51:14;;;;;;;6.78;5.63;;;19.50;83.70;;;;;;5074339;28;20513;-65
2021/05/18 11:53:48;;;;;;;5.97;5.40;;;19.50;83.80;;;;;;5071480;28;20069;-64
2021/05/18 11:56:19;;;;;;;5.78;5.25;;;19.40;84.20;;;;;;5078718;28;20048;-65
2021/05/18 11:58:45;;;;;;;5.90;5.38;;;19.40;84.10;;;;;;5075916;28;20024;-64
2021/05/18 12:01:11;;;;;;;7.95;5.50;;;19.40;84.40;;;;;;5074446;28;20119;-64
2021/05/18 12:03:37;;;;;;;5.85;5.25;;;19.30;84.80;;;;;;5075216;28;20832;-65
2021/05/18 12:06:05;;;;;;;7.43;6.25;;;19.30;85.00;;;;;;5073386;28;20089;-65
2021/05/18 12:08:39;;;;;;;6.22;5.63;;;19.30;85.20;;;;;;5072746;28;20028;-65
2021/05/18 12:11:17;;;;;;;7.75;5.18;;;19.30;84.80;;;;;;5069895;28;20036;-65
2021/05/18 12:13:44;;;;;;;6.75;5.32;;;19.40;85.20;;;;;;5069290;28;20032;-63
2021/05/18 12:16:11;;;;;;;5.80;5.28;;;19.30;84.50;;;;;;5072126;28;20039;-61
2021/05/18 12:18:39;;;;;;;7.78;6.80;;;19.30;84.40;;;;;;5072960;28;20036;-60
2021/05/18 12:21:11;;;;;;;7.80;7.07;;;19.40;84.20;;;;;;5080771;28;20395;-61
2021/05/18 12:23:37;;;;;;;7.15;6.32;;;19.40;83.70;;;;;;5069188;28;20078;-59
2021/05/18 12:26:13;;;;;;;7.10;6.40;;;19.40;83.60;;;;;;5073831;28;20118;-60
2021/05/18 12:28:54;;;;;;;7.70;6.90;;;19.40;83.20;;;;;;5069803;28;20365;-65
2021/05/18 12:31:26;;;;;;;8.45;7.55;;;19.40;83.00;;;;;;5076092;28;20057;-64
2021/05/18 12:33:52;;;;;;;8.20;7.20;;;19.30;82.70;;;;;;5066437;28;20032;-64
2021/05/18 12:36:18;;;;;;;9.38;6.93;;;19.30;83.00;;;;;;5078819;28;20031;-62
2021/05/18 12:39:03;;;;;;;8.00;7.30;;;19.30;83.00;;;;;;5074694;28;20021;-63
2021/05/18 12:41:29;;;;;;;8.18;7.15;;;19.30;82.70;;;;;;5079061;28;20051;-63
2021/05/18 12:44:05;;;;;;;7.40;6.70;;;19.30;82.70;;;;;;5080113;28;20039;-62
2021/05/18 12:46:31;;;;;;;10.07;7.25;;;19.30;82.20;;;;;;5077115;28;20126;-64
2021/05/18 12:48:56;;;;;;;8.80;7.53;;;19.30;82.40;;;;;;5074493;28;20024;-61
2021/05/18 12:51:27;;;;;;;7.82;7.03;;;19.30;82.30;;;;;;5077047;28;20565;-63
2021/05/18 12:54:04;;;;;;;7.35;6.55;;;19.30;82.20;;;;;;5058616;28;20499;-63
2021/05/18 12:56:31;;;;;;;7.07;5.85;;;19.40;82.20;;;;;;5059720;28;20092;-59
2021/05/18 12:59:08;;;;;;;7.30;6.00;;;19.40;81.90;;;;;;5079850;28;20071;-59
2021/05/18 13:01:43;;;;;;;6.10;5.50;;;19.40;81.80;;;;;;5077627;28;20120;-58
2021/05/18 13:04:10;;;;;;;9.07;7.00;;;19.50;81.40;;;;;;5076564;28;20105;-59
2021/05/18 13:06:48;;;;;;;7.57;5.82;;;19.50;80.90;;;;;;5071992;28;20798;-63
2021/05/18 13:09:31;;;;;;;8.73;6.53;;;19.60;81.40;;;;;;5080548;28;20089;-58
2021/05/18 13:12:11;;;;;;;9.23;5.70;;;19.60;81.40;;;;;;5075174;28;20051;-64
2021/05/18 13:14:59;;;;;;;18.65;4.55;;;19.60;80.70;;;;;;5075846;28;20035;-64
2021/05/18 13:17:26;;;;;;;9.00;5.18;;;19.60;79.80;;;;;;5075066;28;20443;-64
2021/05/18 13:20:08;;;;;;;12.95;6.95;;;19.60;78.70;;;;;;5077212;28;20040;-65
2021/05/18 13:22:36;;;;;;;14.80;7.43;;;19.60;77.50;;;;;;5077507;28;20036;-65
2021/05/18 13:28:02;;;;;;;14.35;7.93;;;19.30;77.30;;;;;;5079871;28;20036;-64
2021/05/18 13:30:29;;;;;;;10.15;5.22;;;19.30;77.60;;;;;;5058924;28;20032;-64
2021/05/18 13:32:55;;;;;;;7.03;4.03;;;19.20;77.30;;;;;;5078197;28;20032;-65
2021/05/18 13:35:25;;;;;;;3.70;2.63;;;19.10;77.00;;;;;;5079365;28;20020;-65
2021/05/18 13:37:51;;;;;;;2.72;2.50;;;19.00;77.10;;;;;;5088595;28;20024;-65
2021/05/18 13:40:18;;;;;;;2.95;2.20;;;18.90;78.00;;;;;;5074003;28;20068;-65
2021/05/18 13:42:49;;;;;;;4.00;2.50;;;18.80;77.70;;;;;;5083175;28;20055;-65
2021/05/18 13:45:15;;;;;;;3.15;2.70;;;18.70;77.90;;;;;;5077928;28;20716;-66
2021/05/18 13:47:41;;;;;;;3.55;2.70;;;18.60;78.10;;;;;;5080688;28;20040;-66
2021/05/18 13:50:07;;;;;;;3.63;2.90;;;18.50;78.90;;;;;;5080037;28;20032;-65
2021/05/18 13:52:33;;;;;;;4.65;3.50;;;18.40;79.20;;;;;;5080498;28;20048;-65
2021/05/18 13:54:59;;;;;;;6.60;3.80;;;18.40;80.10;;;;;;5084137;28;20024;-65
2021/05/18 13:57:25;;;;;;;7.32;3.55;;;18.30;80.30;;;;;;5081395;28;20061;-64
2021/05/18 13:59:51;;;;;;;4.07;3.17;;;18.30;80.90;;;;;;5078880;28;20052;-66
2021/05/18 14:02:19;;;;;;;4.40;3.17;;;18.30;80.70;;;;;;5078442;28;20135;-65
2021/05/18 14:04:44;;;;;;;6.03;3.80;;;18.20;80.70;;;;;;5084652;28;20032;-65
2021/05/18 14:09:58;;;;;;;5.93;3.75;;;18.20;81.30;;;;;;5080090;28;20094;-63
2021/05/18 14:12:23;;;;;;;6.95;3.65;;;18.10;81.70;;;;;;5085599;28;20051;-64
2021/05/18 14:14:49;;;;;;;3.95;3.20;;;18.10;82.10;;;;;;5083436;28;20117;-65
2021/05/18 14:17:15;;;;;;;6.40;3.47;;;18.10;82.10;;;;;;5083495;28;20667;-64
2021/05/18 14:19:40;;;;;;;6.78;4.10;;;18.10;82.50;;;;;;5081733;28;20113;-64
2021/05/18 14:22:06;;;;;;;5.43;3.80;;;18.10;83.10;;;;;;5083067;28;20042;-62
2021/05/18 14:24:39;;;;;;;5.78;3.80;;;18.10;83.30;;;;;;5082228;28;20125;-64
2021/05/18 14:27:09;;;;;;;6.53;3.67;;;18.10;83.60;;;;;;5079335;28;20027;-64
2021/05/18 14:29:35;;;;;;;3.85;3.25;;;18.10;83.30;;;;;;5080388;28;20040;-63
2021/05/18 14:32:01;;;;;;;4.75;3.97;;;18.10;83.30;;;;;;5076102;28;20392;-64
2021/05/18 14:34:27;;;;;;;5.78;3.13;;;18.10;83.10;;;;;;5076203;28;20069;-63
2021/05/18 14:36:52;;;;;;;4.82;3.38;;;18.10;83.20;;;;;;5074794;28;20028;-62
2021/05/18 14:39:24;;;;;;;3.65;3.05;;;18.10;83.20;;;;;;5079883;28;20028;-61
2021/05/18 14:44:33;;;;;;;4.60;3.05;;;18.00;82.90;;;;;;5080671;28;20042;-58
2021/05/18 14:47:37;;;;;;;7.63;4.07;;;18.00;83.00;;;;;;5079060;28;20481;-63
2021/05/18 14:55:21;;;;;;;4.55;3.85;;;17.90;83.80;;;;;;5076175;28;20093;-65
2021/05/18 14:57:47;;;;;;;4.75;4.07;;;17.90;84.20;;;;;;5074742;28;20028;-65
2021/05/18 15:00:13;;;;;;;5.95;3.88;;;17.90;84.40;;;;;;5072953;28;20749;-66
2021/05/18 15:02:39;;;;;;;5.57;3.45;;;17.90;84.30;;;;;;5075244;28;20028;-65
2021/05/18 15:05:06;;;;;;;4.82;4.15;;;17.80;84.00;;;;;;5078718;28;20499;-65
2021/05/18 15:07:31;;;;;;;5.22;3.90;;;17.80;84.40;;;;;;5080077;28;20032;-63
2021/05/18 15:09:57;;;;;;;4.90;4.32;;;17.80;84.50;;;;;;5074331;28;20763;-63
2021/05/18 15:12:23;;;;;;;4.47;3.83;;;17.80;84.70;;;;;;5079468;28;20028;-64
2021/05/18 15:14:48;;;;;;;7.85;4.32;;;17.80;84.70;;;;;;5077092;28;20025;-64
2021/05/18 15:17:15;;;;;;;6.32;4.55;;;17.80;84.60;;;;;;5077647;28;20056;-64
2021/05/18 15:19:41;;;;;;;5.13;4.30;;;17.80;84.90;;;;;;5078330;28;20499;-64
2021/05/18 15:22:09;;;;;;;4.90;4.40;;;17.80;84.70;;;;;;5081083;28;20112;-63
2021/05/18 15:24:34;;;;;;;5.15;4.47;;;17.70;84.90;;;;;;5082196;28;20055;-64
2021/05/18 15:27:00;;;;;;;4.78;4.07;;;17.70;85.40;;;;;;5085846;28;20503;-64
2021/05/18 15:29:26;;;;;;;4.82;4.28;;;17.70;85.40;;;;;;5090014;28;20481;-66
2021/05/18 15:31:52;;;;;;;4.47;4.03;;;17.70;85.30;;;;;;5082981;28;20043;-65
2021/05/18 15:34:18;;;;;;;4.65;4.22;;;17.60;85.20;;;;;;5080117;28;20396;-64
2021/05/18 15:36:44;;;;;;;6.05;4.35;;;17.60;85.70;;;;;;5083044;28;20028;-65
2021/05/18 15:39:10;;;;;;;7.18;4.40;;;17.60;86.10;;;;;;5082965;28;20380;-66
2021/05/18 15:41:36;;;;;;;6.07;4.70;;;17.60;86.10;;;;;;5078605;28;20115;-66
2021/05/18 15:44:03;;;;;;;5.10;4.07;;;17.60;86.50;;;;;;5081996;28;20519;-59
2021/05/18 15:46:29;;;;;;;6.60;4.53;;;17.60;86.50;;;;;;5078938;28;20097;-59
2021/05/18 15:48:55;;;;;;;5.25;4.38;;;17.70;86.80;;;;;;5078004;28;20036;-63
2021/05/18 15:51:20;;;;;;;5.75;4.63;;;17.70;86.90;;;;;;5086229;28;20039;-63
2021/05/18 15:53:46;;;;;;;5.25;4.25;;;17.80;86.90;;;;;;5079246;28;21318;-63
2021/05/18 15:56:12;;;;;;;4.70;3.97;;;17.80;86.80;;;;;;5082141;28;20123;-59
2021/05/18 15:58:37;;;;;;;5.15;4.30;;;17.90;87.10;;;;;;5078566;28;20032;-59
2021/05/18 16:01:03;;;;;;;4.43;3.97;;;17.90;87.10;;;;;;5077157;28;20039;-58
2021/05/18 16:03:29;;;;;;;4.95;4.03;;;17.90;86.80;;;;;;5089046;28;20491;-66
2021/05/18 16:05:57;;;;;;;5.05;4.43;;;17.90;87.00;;;;;;5078707;28;20024;-66
2021/05/18 16:11:00;;;;;;;5.22;4.45;;;18.00;87.10;;;;;;5091192;28;20031;-66
2021/05/18 16:13:26;;;;;;;4.88;4.15;;;18.00;86.80;;;;;;5089557;28;20111;-66
2021/05/18 16:15:58;;;;;;;5.47;4.47;;;18.10;86.90;;;;;;5091108;28;20107;-66
2021/05/18 16:18:25;;;;;;;4.45;4.05;;;18.10;87.10;;;;;;5087897;28;20024;-66
2021/05/18 16:20:52;;;;;;;5.50;4.43;;;18.10;86.80;;;;;;5088123;28;20028;-66
2021/05/18 16:23:18;;;;;;;5.18;3.88;;;18.10;86.70;;;;;;5072793;28;20031;-66
2021/05/18 16:25:43;;;;;;;4.57;4.10;;;18.10;86.40;;;;;;5083629;28;20025;-66
2021/05/18 16:28:09;;;;;;;4.90;4.40;;;18.00;86.50;;;;;;5083835;28;20039;-66
2021/05/18 16:30:34;;;;;;;5.10;3.92;;;18.00;86.60;;;;;;5075608;28;20276;-66
2021/05/18 16:33:02;;;;;;;5.40;4.47;;;18.00;86.90;;;;;;5081183;28;20023;-66
2021/05/18 16:35:28;;;;;;;5.78;4.35;;;18.00;87.20;;;;;;5087151;28;20024;-66
2021/05/18 16:37:53;;;;;;;4.75;4.15;;;18.00;87.50;;;;;;5083830;28;20028;-66
2021/05/18 16:40:19;;;;;;;5.32;4.82;;;18.00;87.60;;;;;;5087411;28;20056;-66
2021/05/18 16:42:45;;;;;;;6.03;4.95;;;18.00;87.50;;;;;;5077896;28;20121;-66
2021/05/18 16:45:11;;;;;;;6.32;4.53;;;18.00;87.90;;;;;;5087270;28;20062;-66
2021/05/18 16:47:37;;;;;;;4.57;4.13;;;18.00;87.90;;;;;;5087882;28;20044;-66
2021/05/18 16:50:07;;;;;;;4.57;4.13;;;18.00;87.60;;;;;;5077182;28;20107;-66
2021/05/18 16:52:33;;;;;;;5.18;4.55;;;18.00;87.40;;;;;;5089514;28;20044;-66
2021/05/18 16:54:58;;;;;;;5.85;4.05;;;18.00;87.80;;;;;;5089913;28;20023;-66
2021/05/18 16:57:24;;;;;;;5.30;4.15;;;18.10;87.90;;;;;;5089686;28;20107;-66
2021/05/18 16:59:49;;;;;;;16.38;4.40;;;18.10;87.60;;;;;;5086413;28;20135;-66
2021/05/18 17:02:15;;;;;;;4.22;3.83;;;18.00;87.20;;;;;;5082915;28;20031;-66
2021/05/18 17:04:41;;;;;;;5.20;3.65;;;18.10;87.10;;;;;;5087109;28;20038;-66
2021/05/18 17:07:07;;;;;;;7.13;4.50;;;18.00;86.70;;;;;;5092720;28;20055;-66
2021/05/18 17:09:32;;;;;;;4.75;4.22;;;18.00;86.50;;;;;;5092501;28;20487;-66
2021/05/18 17:12:01;;;;;;;3.88;3.53;;;18.00;86.40;;;;;;5086621;28;20021;-66
2021/05/18 17:14:26;;;;;;;4.00;3.60;;;17.90;86.20;;;;;;5064817;28;20048;-66
2021/05/18 17:16:52;;;;;;;3.88;3.58;;;17.80;86.40;;;;;;5087759;28;20116;-66
2021/05/18 17:19:17;;;;;;;4.80;4.13;;;17.70;86.50;;;;;;5093178;28;20024;-66
2021/05/18 17:21:43;;;;;;;5.10;4.25;;;17.70;86.90;;;;;;5089554;28;20024;-66
2021/05/18 17:24:10;;;;;;;5.13;4.32;;;17.60;87.00;;;;;;5090827;28;20016;-66
2021/05/18 17:26:36;;;;;;;4.28;3.78;;;17.60;87.60;;;;;;5091390;28;20103;-66
2021/05/18 17:29:03;;;;;;;5.03;4.22;;;17.60;87.50;;;;;;5093062;28;20032;-66
2021/05/18 17:31:28;;;;;;;6.68;4.82;;;17.60;87.50;;;;;;5085422;28;20429;-66
2021/05/18 17:33:54;;;;;;;5.18;4.00;;;17.60;87.70;;;;;;5080032;28;20017;-66
2021/05/18 17:36:20;;;;;;;4.38;3.97;;;17.60;87.70;;;;;;5079671;28;20507;-66
2021/05/18 17:38:46;;;;;;;4.30;3.90;;;17.60;87.70;;;;;;5083239;28;20028;-66
2021/05/18 17:41:12;;;;;;;5.18;3.58;;;17.60;87.80;;;;;;5088438;28;20028;-66